createdAt,value
2023-01-26T00:00:27.680Z,1.90
2023-01-26T00:04:30.781Z,2.00
2023-01-26T00:08:38.730Z,2.00
2023-01-26T00:12:45.300Z,2.00
2023-01-26T00:16:50.871Z,2.00
2023-01-26T00:20:57.058Z,2.00
2023-01-26T00:25:00.099Z,2.00
2023-01-26T00:29:04.754Z,1.90
2023-01-26T00:33:08.127Z,1.90
2023-01-26T00:37:11.187Z,1.90
2023-01-26T00:41:38.167Z,1.90
2023-01-26T00:45:45.966Z,2.00
2023-01-26T00:49:49.023Z,2.00
2023-01-26T00:53:55.298Z,1.90
2023-01-26T00:57:58.633Z,2.00
2023-01-26T01:02:03.764Z,2.00
2023-01-26T01:06:08.465Z,1.90
2023-01-26T01:10:14.956Z,1.70
2023-01-26T01:14:19.299Z,1.70
2023-01-26T01:18:24.003Z,1.80
2023-01-26T01:22:30.177Z,1.90
2023-01-26T01:26:33.415Z,1.90
2023-01-26T01:30:39.022Z,1.80
2023-01-26T01:34:43.417Z,1.80
2023-01-26T01:38:49.396Z,1.80
2023-01-26T01:42:52.445Z,1.80
2023-01-26T01:46:59.646Z,1.80
2023-01-26T01:51:19.699Z,1.80
2023-01-26T01:55:25.848Z,1.80
2023-01-26T01:59:34.389Z,1.80
2023-01-26T02:03:38.484Z,1.80
2023-01-26T02:07:44.934Z,1.90
2023-01-26T02:11:51.215Z,1.90
2023-01-26T02:15:54.832Z,1.90
2023-01-26T02:20:05.742Z,1.80
2023-01-26T02:24:17.732Z,1.80
2023-01-26T02:28:26.223Z,1.80
2023-01-26T02:32:29.325Z,1.80
2023-01-26T02:36:35.927Z,1.90
2023-01-26T02:40:41.815Z,1.90
2023-01-26T02:44:46.490Z,1.90
2023-01-26T02:49:07.093Z,2.00
2023-01-26T02:53:20.071Z,2.00
2023-01-26T02:57:26.150Z,2.00
2023-01-26T03:01:32.554Z,1.90
2023-01-26T03:05:37.289Z,1.80
2023-01-26T03:09:43.718Z,1.70
2023-01-26T03:13:47.791Z,1.70
2023-01-26T03:18:13.319Z,1.70
2023-01-26T03:22:33.722Z,1.70
2023-01-26T03:26:54.620Z,1.80
2023-01-26T03:30:59.171Z,1.80
2023-01-26T03:35:06.479Z,1.80
2023-01-26T03:39:31.842Z,1.80
2023-01-26T03:43:52.523Z,1.90
2023-01-26T03:48:22.443Z,1.80
2023-01-26T03:52:44.282Z,1.80
2023-01-26T03:56:50.215Z,1.90
2023-01-26T04:00:55.826Z,1.90
2023-01-26T04:05:16.873Z,1.90
2023-01-26T04:09:24.406Z,1.80
2023-01-26T04:13:45.698Z,1.80
2023-01-26T04:18:08.136Z,1.70
2023-01-26T04:22:14.608Z,1.80
2023-01-26T04:26:19.018Z,1.80
2023-01-26T04:30:26.456Z,1.80
2023-01-26T04:34:32.663Z,1.80
2023-01-26T04:38:35.737Z,1.80
2023-01-26T04:42:40.334Z,1.80
2023-01-26T04:46:49.138Z,1.80
2023-01-26T04:50:58.071Z,1.80
2023-01-26T04:55:01.115Z,1.60
2023-01-26T04:59:09.068Z,1.60
2023-01-26T05:03:13.637Z,1.60
2023-01-26T05:07:19.245Z,1.60
2023-01-26T05:11:23.966Z,1.60
2023-01-26T05:15:30.098Z,1.60
2023-01-26T05:19:43.870Z,1.60
2023-01-26T05:23:50.920Z,1.60
2023-01-26T05:27:55.517Z,1.60
2023-01-26T05:32:02.924Z,1.70
2023-01-26T05:36:08.284Z,1.70
2023-01-26T05:40:13.091Z,1.70
2023-01-26T05:44:16.261Z,1.60
2023-01-26T05:48:28.276Z,1.60
2023-01-26T05:52:31.954Z,1.60
2023-01-26T05:56:35.010Z,1.60
2023-01-26T06:00:42.032Z,1.60
2023-01-26T06:04:46.495Z,1.50
2023-01-26T06:08:49.699Z,1.50
2023-01-26T06:12:52.791Z,1.50
2023-01-26T06:16:57.464Z,1.50
2023-01-26T06:21:02.538Z,1.50
2023-01-26T06:25:08.827Z,1.50
2023-01-26T06:29:14.792Z,1.50
2023-01-26T06:33:17.751Z,1.60
2023-01-26T06:37:22.182Z,1.70
2023-01-26T06:41:25.239Z,1.70
2023-01-26T06:45:28.220Z,1.70
2023-01-26T06:49:31.318Z,1.70
2023-01-26T06:53:40.140Z,1.70
2023-01-26T06:57:45.011Z,1.80
2023-01-26T07:01:54.658Z,1.80
2023-01-26T07:05:57.970Z,1.80
2023-01-26T07:10:02.641Z,1.80
2023-01-26T07:14:09.623Z,1.80
2023-01-26T07:18:12.631Z,1.80
2023-01-26T07:22:15.914Z,1.80
2023-01-26T07:26:21.071Z,1.80
2023-01-26T07:30:24.307Z,1.80
2023-01-26T07:34:27.336Z,1.80
2023-01-26T07:38:30.989Z,1.90
2023-01-26T07:42:35.411Z,1.90
2023-01-26T07:46:38.559Z,1.90
2023-01-26T07:50:45.361Z,2.00
2023-01-26T07:54:48.973Z,2.00
2023-01-26T07:58:54.998Z,2.00
2023-01-26T08:03:00.018Z,2.00
2023-01-26T08:07:03.172Z,2.00
2023-01-26T08:11:07.793Z,2.00
2023-01-26T08:15:14.692Z,2.00
2023-01-26T08:19:17.965Z,2.00
2023-01-26T08:23:23.707Z,2.10
2023-01-26T08:27:27.410Z,2.10
2023-01-26T08:31:33.698Z,2.10
2023-01-26T08:35:36.762Z,2.10
2023-01-26T08:39:39.840Z,2.10
2023-01-26T08:43:42.926Z,2.20
2023-01-26T08:47:51.678Z,2.20
2023-01-26T08:51:55.310Z,2.20
2023-01-26T08:55:58.482Z,2.20
2023-01-26T09:00:03.997Z,2.20
2023-01-26T09:04:08.588Z,2.20
2023-01-26T09:08:12.271Z,2.20
2023-01-26T09:12:15.359Z,2.30
2023-01-26T09:16:21.515Z,2.40
2023-01-26T09:20:26.311Z,2.40
2023-01-26T09:24:31.168Z,2.40
2023-01-26T09:28:34.559Z,2.40
2023-01-26T09:32:38.147Z,2.40
2023-01-26T09:36:44.777Z,2.40
2023-01-26T09:40:58.669Z,2.40
2023-01-26T09:45:16.897Z,2.50
2023-01-26T09:49:23.686Z,2.50
2023-01-26T09:53:35.728Z,2.50
2023-01-26T09:57:48.395Z,2.50
2023-01-26T10:01:56.160Z,2.50
2023-01-26T10:06:05.888Z,2.50
2023-01-26T10:10:20.275Z,2.40
2023-01-26T10:14:32.596Z,2.20
2023-01-26T10:18:38.219Z,2.10
2023-01-26T10:22:49.813Z,2.00
2023-01-26T10:27:01.303Z,2.00
2023-01-26T10:31:06.818Z,2.10
2023-01-26T10:35:17.792Z,2.20
2023-01-26T10:39:20.853Z,2.30
2023-01-26T10:43:26.672Z,2.30
2023-01-26T10:47:30.169Z,2.30
2023-01-26T10:51:36.754Z,2.50
2023-01-26T10:55:39.749Z,2.50
2023-01-26T10:59:58.277Z,2.50
2023-01-26T11:04:07.458Z,2.40
2023-01-26T11:08:33.948Z,2.50
2023-01-26T11:12:39.274Z,2.50
2023-01-26T11:16:48.735Z,2.50
2023-01-26T11:20:58.698Z,2.50
2023-01-26T11:25:13.667Z,2.50
2023-01-26T11:29:37.441Z,2.40
2023-01-26T11:33:51.174Z,2.30
2023-01-26T11:38:00.667Z,2.30
2023-01-26T11:42:19.428Z,2.20
2023-01-26T11:46:57.543Z,2.30
2023-01-26T11:51:09.230Z,2.20
2023-01-26T11:55:23.780Z,2.30
2023-01-26T11:59:32.183Z,2.30
2023-01-26T12:03:42.831Z,2.40
2023-01-26T12:07:54.579Z,2.40
2023-01-26T12:12:08.340Z,2.50
2023-01-26T12:16:21.771Z,2.50
2023-01-26T12:20:31.450Z,2.60
2023-01-26T12:29:14.198Z,2.50
2023-01-26T12:33:17.771Z,2.40
2023-01-26T12:37:47.395Z,2.30
2023-01-26T12:42:04.343Z,2.30
2023-01-26T12:46:09.330Z,2.30
2023-01-26T12:50:27.017Z,2.30
2023-01-26T12:54:39.265Z,2.30
2023-01-26T12:58:47.042Z,2.30
2023-01-26T13:02:55.898Z,2.20
2023-01-26T13:07:25.293Z,2.10
2023-01-26T13:11:46.839Z,2.10
2023-01-26T13:16:30.033Z,2.00
2023-01-26T13:20:51.291Z,1.90
2023-01-26T13:24:58.903Z,1.90
2023-01-26T13:29:35.714Z,1.80
2023-01-26T13:33:42.960Z,1.90
2023-01-26T13:37:57.381Z,1.90
2023-01-26T13:42:00.590Z,1.90
2023-01-26T13:46:11.614Z,2.00
2023-01-26T13:50:38.878Z,2.00
2023-01-26T13:54:43.668Z,2.00
2023-01-26T13:58:49.037Z,2.00
2023-01-26T14:02:52.409Z,1.90
2023-01-26T14:07:02.308Z,1.90
2023-01-26T14:11:16.433Z,1.80
2023-01-26T14:15:24.424Z,1.80
2023-01-26T14:19:30.101Z,2.00
2023-01-26T14:23:38.746Z,2.20
2023-01-26T14:27:43.588Z,2.20
2023-01-26T14:31:56.935Z,2.30
2023-01-26T14:36:01.982Z,2.30
2023-01-26T14:40:21.608Z,2.30
2023-01-26T14:44:25.842Z,2.40
2023-01-26T14:48:39.293Z,2.50
2023-01-26T14:52:46.765Z,2.40
2023-01-26T14:56:54.501Z,2.50
2023-01-26T15:01:00.667Z,2.40
2023-01-26T15:05:10.892Z,2.40
2023-01-26T15:09:27.904Z,2.20
2023-01-26T15:13:33.021Z,2.10
2023-01-26T15:17:40.485Z,2.00
2023-01-26T15:21:45.570Z,2.00
2023-01-26T15:25:49.021Z,2.00
2023-01-26T15:29:59.654Z,2.00
2023-01-26T15:34:06.259Z,1.90
2023-01-26T15:38:11.868Z,1.90
2023-01-26T15:42:17.618Z,1.90
2023-01-26T15:46:27.503Z,1.80
2023-01-26T15:50:30.613Z,1.90
2023-01-26T15:54:33.930Z,1.80
2023-01-26T15:58:40.353Z,1.80
2023-01-26T16:02:45.370Z,1.70
2023-01-26T16:06:48.450Z,1.70
2023-01-26T16:10:56.884Z,1.80
2023-01-26T16:15:00.398Z,1.70
2023-01-26T16:19:05.738Z,1.80
2023-01-26T16:23:19.055Z,1.80
2023-01-26T16:27:24.035Z,1.80
2023-01-26T16:31:34.865Z,1.80
2023-01-26T16:35:39.393Z,1.70
2023-01-26T16:39:42.539Z,1.80
2023-01-26T16:43:46.069Z,1.80
2023-01-26T16:47:51.256Z,1.70
2023-01-26T16:51:56.665Z,1.70
2023-01-26T16:56:02.060Z,1.60
2023-01-26T17:00:08.631Z,1.60
2023-01-26T17:04:14.482Z,1.60
2023-01-26T17:08:22.016Z,1.60
2023-01-26T17:12:31.786Z,1.60
2023-01-26T17:16:34.918Z,1.60
2023-01-26T17:20:41.449Z,1.60
2023-01-26T17:24:49.262Z,1.60
2023-01-26T17:28:56.805Z,1.60
2023-01-26T17:33:02.016Z,1.60
2023-01-26T17:37:05.272Z,1.60
2023-01-26T17:41:14.295Z,1.60
2023-01-26T17:45:17.854Z,1.60
2023-01-26T17:49:27.922Z,1.60
2023-01-26T17:53:33.231Z,1.50
2023-01-26T17:57:37.785Z,1.40
2023-01-26T18:01:40.931Z,1.40
2023-01-26T18:05:55.012Z,1.40
2023-01-26T18:09:58.108Z,1.40
2023-01-26T18:14:05.701Z,1.40
2023-01-26T18:18:09.072Z,1.50
2023-01-26T18:22:16.340Z,1.50
2023-01-26T18:26:20.978Z,1.60
2023-01-26T18:30:27.697Z,1.70
2023-01-26T18:34:30.775Z,1.60
2023-01-26T18:38:34.072Z,1.50
2023-01-26T18:42:42.290Z,1.50
2023-01-26T18:46:48.474Z,1.50
2023-01-26T18:50:53.742Z,1.50
2023-01-26T18:54:56.995Z,1.40
2023-01-26T18:59:00.451Z,1.40
2023-01-26T19:03:05.345Z,1.30
2023-01-26T19:07:10.594Z,1.30
2023-01-26T19:11:14.554Z,1.30
2023-01-26T19:15:17.703Z,1.30
2023-01-26T19:19:25.897Z,1.40
2023-01-26T19:23:29.315Z,1.40
2023-01-26T19:27:32.787Z,1.30
2023-01-26T19:31:37.149Z,1.30
2023-01-26T19:35:43.855Z,1.30
2023-01-26T19:39:47.147Z,1.40
2023-01-26T19:43:53.539Z,1.40
2023-01-26T19:47:58.665Z,1.50
2023-01-26T19:52:03.103Z,1.50
2023-01-26T19:56:08.075Z,1.50
2023-01-26T20:00:12.885Z,1.50
2023-01-26T20:04:19.236Z,1.40
2023-01-26T20:08:23.617Z,1.40
2023-01-26T20:12:26.735Z,1.40
2023-01-26T20:16:31.855Z,1.40
2023-01-26T20:20:38.093Z,1.40
2023-01-26T20:24:42.812Z,1.50
2023-01-26T20:28:46.774Z,1.50
2023-01-26T20:32:54.634Z,1.60
2023-01-26T20:37:02.205Z,1.60
2023-01-26T20:41:09.065Z,1.60
2023-01-26T20:45:12.376Z,1.60
2023-01-26T20:49:18.640Z,1.60
2023-01-26T20:53:24.065Z,1.60
2023-01-26T20:57:28.762Z,1.50
2023-01-26T21:01:33.909Z,1.50
2023-01-26T21:05:36.936Z,1.40
2023-01-26T21:09:42.975Z,1.40
2023-01-26T21:13:51.025Z,1.40
2023-01-26T21:17:54.336Z,1.40
2023-01-26T21:21:59.279Z,1.40
2023-01-26T21:26:05.034Z,1.40
2023-01-26T21:30:11.646Z,1.40
2023-01-26T21:34:14.793Z,1.40
2023-01-26T21:38:17.895Z,1.40
2023-01-26T21:42:25.188Z,1.40
2023-01-26T21:46:34.142Z,1.30
2023-01-26T21:50:55.958Z,1.30
2023-01-26T21:54:59.664Z,1.20
2023-01-26T21:59:07.249Z,1.20
2023-01-26T22:03:13.661Z,1.20
2023-01-26T22:07:21.522Z,1.10
2023-01-26T22:11:24.574Z,1.10
2023-01-26T22:15:28.863Z,1.00
2023-01-26T22:19:33.357Z,1.00
2023-01-26T22:23:38.725Z,1.00
2023-01-26T22:27:43.984Z,1.00
2023-01-26T22:31:47.474Z,1.00
2023-01-26T22:36:01.901Z,0.90
2023-01-26T22:40:05.658Z,0.90
2023-01-26T22:44:09.263Z,0.90
2023-01-26T22:48:12.298Z,0.90
2023-01-26T22:52:16.693Z,0.90
2023-01-26T22:56:20.749Z,0.90
2023-01-26T23:00:24.012Z,0.90
2023-01-26T23:04:28.683Z,0.90
2023-01-26T23:08:34.062Z,0.90
2023-01-26T23:12:44.823Z,0.90
2023-01-26T23:16:47.888Z,0.80
2023-01-26T23:20:53.782Z,0.80
2023-01-26T23:25:15.795Z,0.80
2023-01-26T23:29:19.143Z,0.80
2023-01-26T23:33:23.962Z,0.80
2023-01-26T23:37:31.158Z,0.70
2023-01-26T23:41:38.755Z,0.70
2023-01-26T23:45:41.830Z,0.70
2023-01-26T23:49:44.959Z,0.70
2023-01-26T23:53:48.128Z,0.70
2023-01-26T23:57:52.577Z,0.70
